Time;durP1;ratioP1;P1;durP2;ratioP2;P2;SDS_P1;SDS_P2;PMS_P1;PMS_P2;Temp;Humidity;BMP_temperature;BMP_pressure;BME280_temperature;BME280_humidity;BME280_pressure;Samples;Min_cycle;Max_cycle;Signal;HPM_P1;HPM_P2
2021/05/23 00:00:08;;;;;;;3.84;1.79;;;;;;;;;;356044;150;866690;-59
2021/05/23 00:01:09;;;;;;;4.34;1.88;;;;;;;;;;355625;148;864617;-58
2021/05/23 00:02:11;;;;;;;2.82;1.68;;;;;;;;;;355709;148;857579;-58
2021/05/23 00:03:14;;;;;;;5.92;1.89;;;;;;;;;;355447;150;864638;-59
2021/05/23 00:04:15;;;;;;;6.43;1.93;;;;;;;;;;355242;148;857729;-58
2021/05/23 00:05:18;;;;;;;4.34;1.79;;;;;;;;;;356230;150;865193;-59
2021/05/23 00:06:22;;;;;;;4.36;1.82;;;;;;;;;;354263;149;857260;-59
2021/05/23 00:07:25;;;;;;;5.29;2.18;;;;;;;;;;356766;148;858385;-57
2021/05/23 00:08:27;;;;;;;3.90;1.96;;;;;;;;;;356627;150;857983;-58
2021/05/23 00:09:28;;;;;;;9.07;2.60;;;;;;;;;;356792;148;859252;-59
2021/05/23 00:10:31;;;;;;;4.57;1.42;;;;;;;;;;355064;150;864769;-60
2021/05/23 00:11:33;;;;;;;2.18;1.49;;;;;;;;;;357016;150;864860;-58
2021/05/23 00:12:35;;;;;;;2.67;1.72;;;;;;;;;;357863;147;858870;-58
2021/05/23 00:13:41;;;;;;;3.79;1.90;;;;;;;;;;354815;150;859264;-57
2021/05/23 00:14:43;;;;;;;3.81;1.50;;;;;;;;;;356000;148;857280;-58
2021/05/23 00:15:46;;;;;;;3.36;1.41;;;;;;;;;;355065;148;857445;-60
2021/05/23 00:16:48;;;;;;;3.80;1.48;;;;;;;;;;357260;147;859611;-60
2021/05/23 00:17:50;;;;;;;3.21;1.41;;;;;;;;;;357909;147;857273;-59
2021/05/23 00:18:53;;;;;;;3.33;1.54;;;;;;;;;;358018;150;866586;-59
2021/05/23 00:19:55;;;;;;;6.58;1.74;;;;;;;;;;356587;148;865225;-58
2021/05/23 00:20:56;;;;;;;5.75;1.79;;;;;;;;;;355782;147;857172;-60
2021/05/23 00:21:58;;;;;;;4.37;2.06;;;;;;;;;;356882;150;865046;-58
2021/05/23 00:23:00;;;;;;;3.16;1.38;;;;;;;;;;355501;148;865122;-58
2021/05/23 00:24:01;;;;;;;3.07;1.38;;;;;;;;;;356058;149;857349;-58
2021/05/23 00:25:03;;;;;;;3.22;1.54;;;;;;;;;;357899;149;857303;-58
2021/05/23 00:26:05;;;;;;;2.23;1.40;;;;;;;;;;358076;147;865511;-57
2021/05/23 00:27:07;;;;;;;3.39;1.81;;;;;;;;;;356186;148;858703;-57
2021/05/23 00:28:09;;;;;;;1.74;1.44;;;;;;;;;;357260;147;866392;-57
2021/05/23 00:29:11;;;;;;;3.77;1.67;;;;;;;;;;356799;147;858981;-58
2021/05/23 00:30:14;;;;;;;2.71;1.69;;;;;;;;;;355239;149;858198;-58
2021/05/23 00:31:16;;;;;;;3.95;1.61;;;;;;;;;;356932;147;860607;-58
2021/05/23 00:32:18;;;;;;;3.61;1.48;;;;;;;;;;356674;150;858799;-58
2021/05/23 00:33:20;;;;;;;3.73;1.44;;;;;;;;;;355862;150;859823;-57
2021/05/23 00:34:22;;;;;;;4.45;1.53;;;;;;;;;;356650;148;866544;-57
2021/05/23 00:35:23;;;;;;;1.83;1.27;;;;;;;;;;357044;149;866540;-58
2021/05/23 00:36:25;;;;;;;4.14;1.29;;;;;;;;;;353923;151;859119;-58
2021/05/23 00:37:27;;;;;;;2.96;1.39;;;;;;;;;;353167;151;865191;-58
2021/05/23 00:38:28;;;;;;;4.69;1.43;;;;;;;;;;352237;150;858552;-58
2021/05/23 00:39:30;;;;;;;1.89;1.48;;;;;;;;;;353732;148;857985;-56
2021/05/23 00:40:33;;;;;;;4.99;1.40;;;;;;;;;;354838;151;857392;-57
2021/05/23 00:41:35;;;;;;;1.58;1.38;;;;;;;;;;352180;148;859154;-57
2021/05/23 00:42:37;;;;;;;3.47;1.36;;;;;;;;;;352776;149;864942;-58
2021/05/23 00:43:38;;;;;;;3.44;1.60;;;;;;;;;;354013;151;865104;-60
2021/05/23 00:44:40;;;;;;;4.94;1.54;;;;;;;;;;353739;148;857760;-58
2021/05/23 00:45:41;;;;;;;3.39;1.33;;;;;;;;;;353417;149;864733;-58
2021/05/23 00:46:44;;;;;;;2.01;1.56;;;;;;;;;;353453;151;857916;-58
2021/05/23 00:47:46;;;;;;;3.19;1.60;;;;;;;;;;352948;148;865035;-58
2021/05/23 00:48:47;;;;;;;5.03;1.58;;;;;;;;;;354136;151;864757;-58
2021/05/23 00:49:49;;;;;;;3.11;1.81;;;;;;;;;;353665;148;857402;-58
2021/05/23 00:50:51;;;;;;;4.11;1.71;;;;;;;;;;354069;149;857274;-58
2021/05/23 00:51:53;;;;;;;2.34;1.69;;;;;;;;;;354010;151;864758;-58
2021/05/23 00:52:55;;;;;;;3.24;1.60;;;;;;;;;;355489;148;859617;-58
2021/05/23 00:53:56;;;;;;;4.06;1.52;;;;;;;;;;353523;151;865941;-58
2021/05/23 00:54:58;;;;;;;10.61;1.61;;;;;;;;;;354313;151;865054;-59
2021/05/23 00:56:00;;;;;;;2.87;1.54;;;;;;;;;;352649;148;857499;-58
2021/05/23 00:57:02;;;;;;;3.81;1.46;;;;;;;;;;354641;151;857319;-59
2021/05/23 00:58:04;;;;;;;5.09;1.72;;;;;;;;;;351423;148;857644;-58
2021/05/23 00:59:05;;;;;;;3.35;1.70;;;;;;;;;;353218;149;859352;-57
2021/05/23 01:00:08;;;;;;;4.00;1.69;;;;;;;;;;352469;151;857484;-58
2021/05/23 01:01:14;;;;;;;5.21;1.75;;;;;;;;;;353601;148;864808;-57
2021/05/23 01:02:35;;;;;;;1.86;1.49;;;;;;;;;;352516;151;857706;-58
2021/05/23 01:03:38;;;;;;;3.81;1.73;;;;;;;;;;353582;148;857790;-57
2021/05/23 01:04:40;;;;;;;3.90;1.86;;;;;;;;;;354021;151;857406;-58
2021/05/23 01:05:42;;;;;;;3.12;1.50;;;;;;;;;;352254;151;858201;-58
2021/05/23 01:06:44;;;;;;;4.11;1.72;;;;;;;;;;351567;148;858793;-58
2021/05/23 01:07:45;;;;;;;4.29;1.52;;;;;;;;;;354716;151;864964;-58
2021/05/23 01:08:47;;;;;;;3.57;1.59;;;;;;;;;;355721;148;857374;-57
2021/05/23 01:09:49;;;;;;;2.77;1.87;;;;;;;;;;354448;150;864610;-57
2021/05/23 01:11:04;;;;;;;3.13;1.54;;;;;;;;;;350953;153;857416;-57
2021/05/23 01:12:20;;;;;;;2.24;1.52;;;;;;;;;;353476;148;865448;-58
2021/05/23 01:13:37;;;;;;;3.22;1.56;;;;;;;;;;336332;157;857868;-59
2021/05/23 01:14:43;;;;;;;2.31;1.50;;;;;;;;;;347769;149;858650;-58
2021/05/23 01:15:45;;;;;;;4.79;1.68;;;;;;;;;;352830;151;858887;-57
2021/05/23 01:16:54;;;;;;;4.30;1.65;;;;;;;;;;353016;148;857729;-58
2021/05/23 01:17:57;;;;;;;2.96;1.53;;;;;;;;;;351214;149;864495;-59
2021/05/23 01:19:03;;;;;;;3.29;1.67;;;;;;;;;;352054;151;859326;-59
2021/05/23 01:20:08;;;;;;;3.75;1.77;;;;;;;;;;352241;149;857349;-58
2021/05/23 01:21:09;;;;;;;3.39;1.49;;;;;;;;;;350181;151;857765;-59
2021/05/23 01:22:16;;;;;;;2.15;1.76;;;;;;;;;;352291;148;857430;-58
2021/05/23 01:23:25;;;;;;;3.11;1.50;;;;;;;;;;353272;148;857730;-59
2021/05/23 01:24:27;;;;;;;2.19;1.65;;;;;;;;;;356187;151;857486;-58
2021/05/23 01:25:30;;;;;;;2.11;1.69;;;;;;;;;;353669;148;857318;-57
2021/05/23 01:26:33;;;;;;;5.56;2.07;;;;;;;;;;354413;152;857696;-57
2021/05/23 01:27:37;;;;;;;2.47;1.70;;;;;;;;;;355919;148;864750;-57
2021/05/23 01:28:46;;;;;;;6.35;1.79;;;;;;;;;;353555;149;857307;-58
2021/05/23 01:29:48;;;;;;;4.08;1.77;;;;;;;;;;346756;153;857887;-57
2021/05/23 01:30:50;;;;;;;3.83;2.14;;;;;;;;;;352834;148;859080;-57
2021/05/23 01:31:53;;;;;;;2.83;1.68;;;;;;;;;;351902;151;864883;-57
2021/05/23 01:32:56;;;;;;;3.23;2.02;;;;;;;;;;356066;148;857264;-59
2021/05/23 01:33:58;;;;;;;2.45;1.86;;;;;;;;;;353538;148;864631;-58
2021/05/23 01:35:00;;;;;;;2.70;1.80;;;;;;;;;;356438;151;857379;-58
2021/05/23 01:36:01;;;;;;;3.11;1.65;;;;;;;;;;354218;148;857830;-58
2021/05/23 01:37:05;;;;;;;5.97;1.86;;;;;;;;;;357932;150;857208;-58
2021/05/23 01:38:08;;;;;;;2.83;1.74;;;;;;;;;;358944;148;864693;-58
2021/05/23 01:39:11;;;;;;;5.60;1.96;;;;;;;;;;358022;148;859205;-58
2021/05/23 01:40:14;;;;;;;3.46;1.79;;;;;;;;;;356515;150;859105;-58
2021/05/23 01:41:15;;;;;;;4.45;2.15;;;;;;;;;;355288;147;858164;-57
2021/05/23 01:42:17;;;;;;;6.00;1.96;;;;;;;;;;356764;148;859132;-58
2021/05/23 01:43:19;;;;;;;6.96;1.75;;;;;;;;;;355295;151;866681;-58
2021/05/23 01:44:21;;;;;;;2.78;1.51;;;;;;;;;;355754;148;859133;-57
2021/05/23 01:45:22;;;;;;;3.30;1.81;;;;;;;;;;358615;150;859542;-57
2021/05/23 01:46:25;;;;;;;3.94;1.68;;;;;;;;;;349242;151;857867;-56
2021/05/23 01:47:26;;;;;;;2.14;1.69;;;;;;;;;;352182;150;860162;-56
2021/05/23 01:48:28;;;;;;;3.22;1.68;;;;;;;;;;356553;147;865265;-58
2021/05/23 01:49:30;;;;;;;4.03;1.98;;;;;;;;;;356760;147;857837;-58
2021/05/23 01:50:32;;;;;;;3.67;1.59;;;;;;;;;;359414;148;858701;-58
2021/05/23 01:51:33;;;;;;;2.66;1.88;;;;;;;;;;359252;150;865014;-58
2021/05/23 01:52:35;;;;;;;4.01;1.63;;;;;;;;;;357511;148;864998;-56
2021/05/23 01:53:37;;;;;;;4.63;2.03;;;;;;;;;;358462;148;865034;-58
2021/05/23 01:54:38;;;;;;;2.43;1.59;;;;;;;;;;357473;148;864896;-58
2021/05/23 01:55:40;;;;;;;3.64;1.79;;;;;;;;;;355249;148;857555;-57
2021/05/23 01:56:42;;;;;;;4.11;1.65;;;;;;;;;;352962;152;857346;-57
2021/05/23 01:57:43;;;;;;;3.47;1.85;;;;;;;;;;354185;148;857387;-57
2021/05/23 01:58:45;;;;;;;3.01;1.95;;;;;;;;;;356006;148;857492;-58
2021/05/23 01:59:47;;;;;;;5.65;1.92;;;;;;;;;;353327;150;859702;-57
2021/05/23 02:00:49;;;;;;;3.63;1.78;;;;;;;;;;356642;147;857403;-57
2021/05/23 02:01:51;;;;;;;3.42;1.63;;;;;;;;;;356563;150;864586;-58
2021/05/23 02:02:52;;;;;;;2.11;1.83;;;;;;;;;;359009;148;857172;-56
2021/05/23 02:03:55;;;;;;;2.80;1.48;;;;;;;;;;354272;147;857290;-58
2021/05/23 02:04:57;;;;;;;9.98;1.87;;;;;;;;;;352986;152;857747;-58
2021/05/23 02:05:59;;;;;;;5.60;1.71;;;;;;;;;;355771;148;864933;-59
2021/05/23 02:07:01;;;;;;;2.69;2.09;;;;;;;;;;353802;150;867099;-58
2021/05/23 02:08:02;;;;;;;1.91;1.70;;;;;;;;;;356897;148;857131;-58
2021/05/23 02:09:04;;;;;;;6.06;2.44;;;;;;;;;;356998;148;859476;-57
2021/05/23 02:10:10;;;;;;;2.12;1.83;;;;;;;;;;354269;150;858902;-59
2021/05/23 02:11:11;;;;;;;4.34;1.91;;;;;;;;;;354160;148;857405;-59
2021/05/23 02:12:13;;;;;;;3.14;1.90;;;;;;;;;;358391;150;859791;-59
2021/05/23 02:13:14;;;;;;;5.06;2.29;;;;;;;;;;353291;150;866193;-59
2021/05/23 02:14:16;;;;;;;2.38;1.62;;;;;;;;;;357493;148;859137;-57
2021/05/23 02:15:18;;;;;;;5.08;1.94;;;;;;;;;;355624;150;858225;-57
2021/05/23 02:16:20;;;;;;;3.59;1.85;;;;;;;;;;355424;148;867001;-59
2021/05/23 02:17:21;;;;;;;3.66;2.14;;;;;;;;;;357163;148;857501;-59
2021/05/23 02:18:23;;;;;;;6.96;1.86;;;;;;;;;;361941;148;858240;-60
2021/05/23 02:19:24;;;;;;;3.72;1.93;;;;;;;;;;356270;148;860677;-58
2021/05/23 02:20:29;;;;;;;3.81;2.29;;;;;;;;;;353713;151;859453;-57
2021/05/23 02:21:30;;;;;;;10.68;2.26;;;;;;;;;;353879;148;865865;-57
2021/05/23 02:22:34;;;;;;;3.64;1.96;;;;;;;;;;355676;147;857340;-58
2021/05/23 02:23:35;;;;;;;5.01;2.10;;;;;;;;;;353383;150;859806;-58
2021/05/23 02:24:37;;;;;;;3.83;2.57;;;;;;;;;;359151;147;857318;-59
2021/05/23 02:25:39;;;;;;;3.11;2.01;;;;;;;;;;359318;149;866657;-58
2021/05/23 02:26:41;;;;;;;4.83;2.17;;;;;;;;;;356736;150;859016;-58
2021/05/23 02:27:44;;;;;;;3.83;1.99;;;;;;;;;;357371;148;857374;-58
2021/05/23 02:28:45;;;;;;;2.82;2.16;;;;;;;;;;354569;150;857401;-58
2021/05/23 02:29:47;;;;;;;2.42;1.89;;;;;;;;;;353439;148;857747;-58
2021/05/23 02:30:53;;;;;;;4.07;2.01;;;;;;;;;;355594;147;857357;-59
2021/05/23 02:31:54;;;;;;;3.38;2.31;;;;;;;;;;355022;150;857244;-57
2021/05/23 02:32:56;;;;;;;3.52;2.29;;;;;;;;;;348018;150;857949;-57
2021/05/23 02:33:58;;;;;;;5.93;2.63;;;;;;;;;;350793;152;857360;-60
2021/05/23 02:34:59;;;;;;;2.90;2.10;;;;;;;;;;356047;147;867274;-59
2021/05/23 02:36:01;;;;;;;4.76;2.55;;;;;;;;;;356847;147;857205;-59
2021/05/23 02:37:03;;;;;;;5.73;1.98;;;;;;;;;;354818;149;864946;-59
2021/05/23 02:38:05;;;;;;;2.64;2.06;;;;;;;;;;354108;147;865640;-59
2021/05/23 02:39:07;;;;;;;4.01;2.21;;;;;;;;;;357946;148;866182;-58
2021/05/23 02:40:10;;;;;;;6.15;2.27;;;;;;;;;;357943;150;860623;-58
2021/05/23 02:41:11;;;;;;;4.71;2.23;;;;;;;;;;357088;147;859023;-58
2021/05/23 02:42:13;;;;;;;3.46;2.17;;;;;;;;;;357147;150;866029;-59
2021/05/23 02:43:15;;;;;;;5.50;2.16;;;;;;;;;;355204;148;865150;-58
2021/05/23 02:44:16;;;;;;;4.59;2.30;;;;;;;;;;358541;147;857305;-59
2021/05/23 02:45:18;;;;;;;3.19;2.21;;;;;;;;;;355903;151;864952;-59
2021/05/23 02:46:20;;;;;;;5.97;2.25;;;;;;;;;;354456;148;865625;-58
2021/05/23 02:47:22;;;;;;;6.04;2.36;;;;;;;;;;358794;148;859143;-58
2021/05/23 02:48:23;;;;;;;3.02;2.13;;;;;;;;;;355107;148;859847;-59
2021/05/23 02:49:25;;;;;;;3.76;2.38;;;;;;;;;;354789;147;859941;-58
2021/05/23 02:50:29;;;;;;;2.92;2.34;;;;;;;;;;358318;148;859551;-59
2021/05/23 02:51:30;;;;;;;2.81;2.09;;;;;;;;;;358708;148;857646;-59
2021/05/23 02:52:32;;;;;;;3.74;2.47;;;;;;;;;;356911;148;859009;-59
2021/05/23 02:53:34;;;;;;;5.69;2.42;;;;;;;;;;356070;148;858766;-58
2021/05/23 02:54:35;;;;;;;3.01;2.29;;;;;;;;;;361163;148;866442;-58
2021/05/23 02:55:37;;;;;;;3.37;2.24;;;;;;;;;;357334;148;858148;-58
2021/05/23 02:56:39;;;;;;;3.62;2.44;;;;;;;;;;360434;148;859798;-58
2021/05/23 02:57:41;;;;;;;4.85;2.98;;;;;;;;;;357942;147;866344;-58
2021/05/23 02:58:42;;;;;;;3.68;2.65;;;;;;;;;;357832;147;857844;-59
2021/05/23 02:59:44;;;;;;;2.34;2.04;;;;;;;;;;358255;148;865231;-59
2021/05/23 03:00:47;;;;;;;3.25;2.28;;;;;;;;;;359327;147;866448;-58
2021/05/23 03:01:48;;;;;;;3.31;2.26;;;;;;;;;;356230;148;857371;-58
2021/05/23 03:02:50;;;;;;;4.28;2.33;;;;;;;;;;357972;148;867096;-59
2021/05/23 03:03:52;;;;;;;4.13;2.35;;;;;;;;;;359483;147;857166;-58
2021/05/23 03:04:54;;;;;;;3.16;2.36;;;;;;;;;;353375;150;858989;-59
2021/05/23 03:05:56;;;;;;;4.05;2.35;;;;;;;;;;358138;148;857447;-59
2021/05/23 03:06:58;;;;;;;3.11;2.08;;;;;;;;;;356055;147;859076;-59
2021/05/23 03:08:00;;;;;;;4.29;2.07;;;;;;;;;;356043;148;866307;-58
2021/05/23 03:09:01;;;;;;;3.71;2.34;;;;;;;;;;357807;148;857386;-59
2021/05/23 03:10:08;;;;;;;3.80;2.52;;;;;;;;;;357085;148;864933;-58
2021/05/23 03:11:10;;;;;;;3.18;2.27;;;;;;;;;;352319;152;865488;-58
2021/05/23 03:12:11;;;;;;;3.59;2.36;;;;;;;;;;355609;147;857814;-59
2021/05/23 03:13:13;;;;;;;3.00;2.37;;;;;;;;;;359530;148;864768;-59
2021/05/23 03:14:14;;;;;;;6.17;2.36;;;;;;;;;;360045;148;857224;-59
2021/05/23 03:15:17;;;;;;;3.53;2.20;;;;;;;;;;358272;147;857434;-59
2021/05/23 03:16:19;;;;;;;3.83;2.43;;;;;;;;;;359102;149;857319;-59
2021/05/23 03:17:20;;;;;;;2.76;2.26;;;;;;;;;;357213;147;857325;-60
2021/05/23 03:18:22;;;;;;;2.94;2.59;;;;;;;;;;356675;148;865025;-60
2021/05/23 03:19:24;;;;;;;5.00;2.41;;;;;;;;;;356607;148;857443;-60
2021/05/23 03:20:26;;;;;;;5.49;2.48;;;;;;;;;;360259;148;857372;-60
2021/05/23 03:21:28;;;;;;;7.19;2.60;;;;;;;;;;357425;148;856459;-59
2021/05/23 03:22:29;;;;;;;6.92;2.39;;;;;;;;;;354541;150;857426;-60
2021/05/23 03:23:31;;;;;;;4.25;2.51;;;;;;;;;;355366;148;857719;-58
2021/05/23 03:24:33;;;;;;;5.11;2.32;;;;;;;;;;357435;148;857762;-59
2021/05/23 03:25:34;;;;;;;2.43;2.23;;;;;;;;;;359282;150;866173;-60
2021/05/23 03:26:38;;;;;;;5.21;2.90;;;;;;;;;;358593;147;857440;-59
2021/05/23 03:27:39;;;;;;;2.48;2.28;;;;;;;;;;360673;147;857309;-57
2021/05/23 03:28:41;;;;;;;3.72;2.64;;;;;;;;;;358139;148;866518;-60
2021/05/23 03:29:43;;;;;;;3.21;2.58;;;;;;;;;;357885;148;857820;-58
2021/05/23 03:30:46;;;;;;;3.72;2.40;;;;;;;;;;355759;150;857264;-59
2021/05/23 03:31:47;;;;;;;4.20;2.27;;;;;;;;;;354192;149;864917;-62
2021/05/23 03:32:49;;;;;;;3.63;2.31;;;;;;;;;;353478;148;857413;-59
2021/05/23 03:33:50;;;;;;;6.86;2.66;;;;;;;;;;356684;150;864866;-60
2021/05/23 03:34:52;;;;;;;5.59;2.54;;;;;;;;;;356093;148;857363;-61
2021/05/23 03:35:53;;;;;;;4.37;2.17;;;;;;;;;;352789;152;857193;-61
2021/05/23 03:36:55;;;;;;;2.58;2.11;;;;;;;;;;358771;150;857339;-64
2021/05/23 03:37:57;;;;;;;6.99;2.30;;;;;;;;;;354752;148;866512;-60
2021/05/23 03:38:58;;;;;;;5.86;2.41;;;;;;;;;;355874;150;857272;-62
2021/05/23 03:40:00;;;;;;;2.77;2.54;;;;;;;;;;357544;148;857257;-59
2021/05/23 03:41:01;;;;;;;3.15;2.36;;;;;;;;;;352906;150;857353;-63
2021/05/23 03:42:03;;;;;;;5.51;2.47;;;;;;;;;;351509;153;857277;-63
2021/05/23 03:43:05;;;;;;;3.21;2.46;;;;;;;;;;351945;148;858909;-57
2021/05/23 03:44:07;;;;;;;2.51;2.21;;;;;;;;;;352494;148;859046;-60
2021/05/23 03:45:09;;;;;;;2.71;2.45;;;;;;;;;;353127;148;864736;-62
2021/05/23 03:46:11;;;;;;;3.09;2.55;;;;;;;;;;352830;148;857391;-60
2021/05/23 03:47:13;;;;;;;5.84;2.67;;;;;;;;;;353471;150;859360;-61
2021/05/23 03:48:15;;;;;;;5.09;2.82;;;;;;;;;;350737;153;857704;-60
2021/05/23 03:49:16;;;;;;;3.79;2.35;;;;;;;;;;353933;148;861395;-62
2021/05/23 03:50:20;;;;;;;4.29;2.68;;;;;;;;;;358313;148;858747;-61
2021/05/23 03:51:21;;;;;;;3.79;2.72;;;;;;;;;;352605;148;859382;-58
2021/05/23 03:52:23;;;;;;;3.59;2.46;;;;;;;;;;353144;149;859040;-60
2021/05/23 03:53:25;;;;;;;5.77;2.48;;;;;;;;;;353045;149;865040;-60
2021/05/23 03:54:26;;;;;;;2.94;2.42;;;;;;;;;;357008;148;857519;-58
2021/05/23 03:55:28;;;;;;;4.26;2.48;;;;;;;;;;354625;149;856996;-59
2021/05/23 03:56:30;;;;;;;2.71;2.47;;;;;;;;;;353143;152;857382;-59
2021/05/23 03:57:32;;;;;;;7.25;2.31;;;;;;;;;;354721;148;858412;-58
2021/05/23 03:58:34;;;;;;;4.50;2.69;;;;;;;;;;355169;151;857251;-58
2021/05/23 03:59:36;;;;;;;3.76;2.54;;;;;;;;;;350850;153;857207;-60
2021/05/23 04:00:39;;;;;;;6.76;3.51;;;;;;;;;;353733;148;857871;-59
2021/05/23 04:01:41;;;;;;;6.59;2.39;;;;;;;;;;355582;150;865474;-59
2021/05/23 04:02:45;;;;;;;3.80;2.31;;;;;;;;;;349022;148;859756;-60
2021/05/23 04:03:47;;;;;;;6.41;2.88;;;;;;;;;;352108;148;857721;-60
2021/05/23 04:04:56;;;;;;;4.43;2.94;;;;;;;;;;352207;151;857388;-58
2021/05/23 04:05:52;;;;;;;3.70;2.48;;;;;;;;;;350891;148;857273;-60
2021/05/23 04:06:54;;;;;;;2.91;2.40;;;;;;;;;;351690;149;857936;-59
2021/05/23 04:07:57;;;;;;;4.09;2.67;;;;;;;;;;354495;148;864624;-59
2021/05/23 04:08:58;;;;;;;4.91;2.83;;;;;;;;;;352831;148;859362;-61
2021/05/23 04:10:00;;;;;;;4.89;2.68;;;;;;;;;;354382;150;858684;-61
2021/05/23 04:11:08;;;;;;;2.80;2.51;;;;;;;;;;353684;151;857301;-60
2021/05/23 04:12:07;;;;;;;3.69;2.79;;;;;;;;;;352684;148;864778;-60
2021/05/23 04:13:10;;;;;;;3.63;2.56;;;;;;;;;;351843;153;859278;-57
2021/05/23 04:14:12;;;;;;;3.45;2.71;;;;;;;;;;352307;148;857383;-56
2021/05/23 04:15:14;;;;;;;4.01;2.51;;;;;;;;;;353093;149;859203;-56
2021/05/23 04:16:16;;;;;;;3.89;2.47;;;;;;;;;;355624;151;864782;-58
2021/05/23 04:17:18;;;;;;;5.85;2.57;;;;;;;;;;352762;148;857417;-56
2021/05/23 04:18:19;;;;;;;5.84;2.70;;;;;;;;;;353172;149;857467;-56
2021/05/23 04:19:21;;;;;;;3.33;2.57;;;;;;;;;;354254;150;857333;-58
2021/05/23 04:20:23;;;;;;;3.74;2.63;;;;;;;;;;356099;148;863418;-58
2021/05/23 04:21:25;;;;;;;4.79;2.47;;;;;;;;;;356530;150;865088;-57
2021/05/23 04:22:26;;;;;;;4.03;2.88;;;;;;;;;;354190;150;857487;-57
2021/05/23 04:23:28;;;;;;;3.64;2.66;;;;;;;;;;353759;148;857595;-58
2021/05/23 04:24:29;;;;;;;3.76;2.34;;;;;;;;;;359003;148;857814;-55
2021/05/23 04:25:31;;;;;;;3.19;2.49;;;;;;;;;;361487;148;858998;-57
2021/05/23 04:26:33;;;;;;;3.31;2.23;;;;;;;;;;352866;149;857186;-57
2021/05/23 04:27:35;;;;;;;2.96;2.44;;;;;;;;;;350912;148;857480;-57
2021/05/23 04:28:37;;;;;;;2.51;2.31;;;;;;;;;;353258;148;857400;-61
2021/05/23 04:29:38;;;;;;;3.26;2.19;;;;;;;;;;352202;149;857338;-58
2021/05/23 04:30:40;;;;;;;4.82;2.28;;;;;;;;;;353271;148;857319;-57
2021/05/23 04:31:42;;;;;;;3.19;2.36;;;;;;;;;;352118;148;864886;-58
2021/05/23 04:32:43;;;;;;;3.38;2.25;;;;;;;;;;356483;150;857695;-58
2021/05/23 04:33:45;;;;;;;3.03;2.20;;;;;;;;;;352959;150;857470;-57
2021/05/23 04:34:46;;;;;;;2.91;2.07;;;;;;;;;;352634;148;856382;-58
2021/05/23 04:35:48;;;;;;;2.56;2.12;;;;;;;;;;363023;148;863792;-58
2021/05/23 04:36:50;;;;;;;2.50;1.75;;;;;;;;;;355242;148;857433;-56
2021/05/23 04:37:52;;;;;;;2.88;2.07;;;;;;;;;;353251;149;857486;-61
2021/05/23 04:38:54;;;;;;;4.61;1.83;;;;;;;;;;356539;148;857337;-60
2021/05/23 04:39:55;;;;;;;3.56;1.84;;;;;;;;;;356056;148;857121;-59
2021/05/23 04:40:57;;;;;;;4.58;1.94;;;;;;;;;;351209;151;857356;-58
2021/05/23 04:41:59;;;;;;;4.47;1.93;;;;;;;;;;352532;151;865412;-59
2021/05/23 04:43:01;;;;;;;4.01;1.69;;;;;;;;;;353228;148;858307;-59
2021/05/23 04:44:06;;;;;;;2.54;1.84;;;;;;;;;;352933;151;858792;-58
2021/05/23 04:45:07;;;;;;;3.70;1.64;;;;;;;;;;356075;148;856892;-59
2021/05/23 04:46:09;;;;;;;3.15;1.55;;;;;;;;;;352176;148;857712;-59
2021/05/23 04:47:10;;;;;;;2.12;1.88;;;;;;;;;;350541;153;859625;-60
2021/05/23 04:48:12;;;;;;;2.43;1.57;;;;;;;;;;355644;148;858312;-60
2021/05/23 04:49:14;;;;;;;2.37;1.63;;;;;;;;;;353241;149;857975;-60
2021/05/23 04:50:17;;;;;;;2.10;1.61;;;;;;;;;;353902;151;857263;-59
2021/05/23 04:51:19;;;;;;;3.76;1.74;;;;;;;;;;354947;148;858081;-60
2021/05/23 04:52:20;;;;;;;2.31;1.54;;;;;;;;;;350701;150;866243;-60
2021/05/23 04:53:22;;;;;;;3.24;1.59;;;;;;;;;;352918;149;858329;-60
2021/05/23 04:54:24;;;;;;;2.84;1.64;;;;;;;;;;353493;148;858911;-59
2021/05/23 05:13:19;;;;;;;3.03;1.30;;;;;;;17.06;57.95;99705.81;372518;142;874927;-63
2021/05/23 05:14:20;;;;;;;2.29;1.23;;;;;;;16.96;57.85;99702.66;363467;145;857493;-63
2021/05/23 05:15:22;;;;;;;1.48;0.99;;;;;;;16.85;56.67;99716.16;364059;146;857448;-63
2021/05/23 05:16:24;;;;;;;2.93;1.38;;;;;;;16.78;56.49;99710.30;363032;146;865065;-63
2021/05/23 05:17:26;;;;;;;1.76;1.20;;;;;;;16.81;57.16;99709.34;363438;144;859111;-64
2021/05/23 05:18:28;;;;;;;1.71;1.27;;;;;;;16.81;57.16;99709.34;362094;147;864039;-63
2021/05/23 05:19:29;;;;;;;2.69;1.15;;;;;;;17.20;55.98;99741.92;364540;145;865127;-64
2021/05/23 05:20:31;;;;;;;2.20;1.05;;;;;;;17.20;55.98;99741.92;362095;145;858955;-64
2021/05/23 05:21:33;;;;;;;3.59;1.42;;;;;;;17.35;56.04;99722.12;363670;145;859451;-64
2021/05/23 05:22:36;;;;;;;2.56;0.93;;;;;;;17.36;53.98;99710.75;361832;145;866109;-63
2021/05/23 05:23:38;;;;;;;3.68;1.22;;;;;;;17.37;53.64;99715.07;366013;145;857150;-63
2021/05/23 05:24:39;;;;;;;3.94;1.17;;;;;;;17.47;54.17;99718.19;363320;144;857520;-62
2021/05/23 05:25:41;;;;;;;3.31;1.15;;;;;;;17.55;54.64;99734.43;361898;146;864863;-62
2021/05/23 05:26:44;;;;;;;1.11;0.94;;;;;;;17.55;54.64;99734.43;361110;145;858576;-64
2021/05/23 05:27:46;;;;;;;3.02;1.34;;;;;;;17.60;54.62;99719.39;362362;144;859356;-62
2021/05/23 05:28:48;;;;;;;2.16;1.09;;;;;;;17.48;54.05;99725.95;364203;145;865874;-62
2021/05/23 05:29:50;;;;;;;2.09;1.31;;;;;;;17.46;54.62;99727.78;363760;145;857469;-62
2021/05/23 05:30:52;;;;;;;1.60;1.01;;;;;;;17.46;54.62;99727.78;363837;146;857312;-62
2021/05/23 05:31:54;;;;;;;2.81;1.41;;;;;;;17.46;54.30;99719.94;359891;146;857323;-62
2021/05/23 05:32:56;;;;;;;2.03;1.35;;;;;;;17.47;54.36;99724.25;354906;147;864458;-62
2021/05/23 05:33:58;;;;;;;1.83;1.08;;;;;;;17.14;55.56;99726.46;356725;147;859316;-62
2021/05/23 05:34:59;;;;;;;3.13;1.19;;;;;;;17.10;56.80;99727.48;357458;147;865783;-62
2021/05/23 05:36:01;;;;;;;1.74;1.14;;;;;;;;;;358914;147;858995;-63
2021/05/23 05:37:03;;;;;;;1.71;1.16;;;;;;;;;;349386;151;857411;-63
2021/05/23 05:38:05;;;;;;;2.55;1.27;;;;;;;;;;356715;148;858855;-63
2021/05/23 05:39:06;;;;;;;2.09;1.20;;;;;;;;;;353605;150;858848;-63
2021/05/23 05:40:10;;;;;;;1.47;1.12;;;;;;;;;;357725;147;865541;-63
2021/05/23 05:41:11;;;;;;;2.48;1.40;;;;;;;;;;355736;150;860057;-63
2021/05/23 05:42:13;;;;;;;1.59;1.27;;;;;;;;;;355418;148;859886;-63
2021/05/23 05:43:14;;;;;;;2.86;1.17;;;;;;;;;;356542;147;857362;-61
2021/05/23 05:44:16;;;;;;;6.31;1.20;;;;;;;;;;354628;150;857131;-63
2021/05/23 05:45:18;;;;;;;1.86;1.38;;;;;;;;;;360095;148;864910;-63
2021/05/23 05:46:19;;;;;;;2.74;1.55;;;;;;;;;;357539;147;866439;-63
2021/05/23 05:47:21;;;;;;;2.11;1.34;;;;;;;;;;353849;148;865509;-63
2021/05/23 05:48:22;;;;;;;3.22;1.32;;;;;;;;;;358487;148;859274;-61
2021/05/23 05:49:24;;;;;;;2.19;1.23;;;;;;;;;;356503;149;859130;-63
2021/05/23 05:50:27;;;;;;;2.40;1.43;;;;;;;;;;354154;150;858227;-62
2021/05/23 05:51:28;;;;;;;1.73;1.46;;;;;;;;;;357856;147;856766;-63
2021/05/23 05:52:30;;;;;;;4.44;1.32;;;;;;;;;;357418;148;857845;-62
2021/05/23 05:53:31;;;;;;;1.44;1.27;;;;;;;;;;351014;151;864548;-63
2021/05/23 05:54:33;;;;;;;3.81;1.55;;;;;;;;;;357985;147;857310;-63
2021/05/23 05:55:35;;;;;;;1.56;1.14;;;;;;;;;;356661;148;866219;-62
2021/05/23 05:56:38;;;;;;;1.92;1.37;;;;;;;;;;358782;149;859432;-63
2021/05/23 05:57:40;;;;;;;2.40;1.21;;;;;;;;;;359063;147;858852;-63
2021/05/23 05:58:41;;;;;;;2.28;1.43;;;;;;;;;;357217;147;864557;-63
2021/05/23 05:59:43;;;;;;;3.46;1.70;;;;;;;;;;356052;147;864967;-63
2021/05/23 06:00:45;;;;;;;2.90;1.42;;;;;;;;;;356746;148;865260;-63
2021/05/23 06:01:47;;;;;;;3.36;1.30;;;;;;;;;;358099;148;857384;-63
2021/05/23 06:02:48;;;;;;;2.55;1.43;;;;;;;;;;357075;147;857425;-63
2021/05/23 06:03:50;;;;;;;2.39;1.45;;;;;;;;;;359084;148;857405;-63
2021/05/23 06:04:51;;;;;;;1.46;1.25;;;;;;;;;;358933;148;857332;-63
2021/05/23 06:05:53;;;;;;;1.54;1.17;;;;;;;;;;358009;147;866693;-62
2021/05/23 06:06:55;;;;;;;1.60;1.37;;;;;;;;;;357256;150;859045;-62
2021/05/23 06:07:56;;;;;;;2.29;1.57;;;;;;;;;;355850;147;857273;-63
2021/05/23 06:08:58;;;;;;;1.50;1.40;;;;;;;;;;357132;147;865425;-62
2021/05/23 06:10:00;;;;;;;2.21;1.32;;;;;;;;;;356800;149;866607;-62
2021/05/23 06:11:01;;;;;;;1.59;1.24;;;;;;;;;;359071;147;858890;-62
2021/05/23 06:12:04;;;;;;;2.40;1.47;;;;;;;;;;359718;148;857462;-62
2021/05/23 06:13:06;;;;;;;2.69;1.35;;;;;;;;;;358423;149;857683;-62
2021/05/23 06:14:07;;;;;;;1.49;1.11;;;;;;;;;;356259;147;859834;-63
2021/05/23 06:15:10;;;;;;;1.59;1.32;;;;;;;;;;356673;147;865005;-62
2021/05/23 06:16:12;;;;;;;1.59;1.47;;;;;;;;;;357882;148;864948;-62
2021/05/23 06:17:13;;;;;;;2.59;1.39;;;;;;;;;;357364;147;865848;-62
2021/05/23 06:18:15;;;;;;;2.09;1.35;;;;;;;;;;356721;149;859248;-62
2021/05/23 06:19:17;;;;;;;1.76;1.30;;;;;;;;;;351070;151;865173;-61